sensor_id;sensor_type;location;lat;lon;timestamp;temperature;humidity
11818;DHT22;5966;52.402;5.322;2022-09-11T00:01:37;16.30;99.90
11818;DHT22;5966;52.402;5.322;2022-09-11T00:04:06;16.30;99.90
11818;DHT22;5966;52.402;5.322;2022-09-11T00:06:36;16.30;99.90
11818;DHT22;5966;52.402;5.322;2022-09-11T00:09:06;16.30;99.90
11818;DHT22;5966;52.402;5.322;2022-09-11T00:11:37;16.30;99.90
11818;DHT22;5966;52.402;5.322;2022-09-11T00:14:06;16.40;99.90
11818;DHT22;5966;52.402;5.322;2022-09-11T00:16:38;16.40;99.90
11818;DHT22;5966;52.402;5.322;2022-09-11T00:19:09;16.40;99.90
11818;DHT22;5966;52.402;5.322;2022-09-11T00:21:38;16.40;99.90
11818;DHT22;5966;52.402;5.322;2022-09-11T00:24:07;16.40;99.90
11818;DHT22;5966;52.402;5.322;2022-09-11T00:26:35;16.30;99.90
11818;DHT22;5966;52.402;5.322;2022-09-11T00:29:04;16.30;99.90
11818;DHT22;5966;52.402;5.322;2022-09-11T00:31:32;16.30;99.90
11818;DHT22;5966;52.402;5.322;2022-09-11T00:34:00;16.30;99.90
11818;DHT22;5966;52.402;5.322;2022-09-11T00:36:30;16.20;99.90
11818;DHT22;5966;52.402;5.322;2022-09-11T00:39:01;16.20;99.90
11818;DHT22;5966;52.402;5.322;2022-09-11T00:41:30;16.20;99.90
11818;DHT22;5966;52.402;5.322;2022-09-11T00:44:02;16.20;99.90
11818;DHT22;5966;52.402;5.322;2022-09-11T00:46:38;16.20;99.90
11818;DHT22;5966;52.402;5.322;2022-09-11T00:49:17;16.20;99.90
11818;DHT22;5966;52.402;5.322;2022-09-11T00:51:51;16.10;99.90
11818;DHT22;5966;52.402;5.322;2022-09-11T00:54:25;16.10;99.90
11818;DHT22;5966;52.402;5.322;2022-09-11T00:56:56;16.00;99.90
11818;DHT22;5966;52.402;5.322;2022-09-11T00:59:27;16.00;99.90
11818;DHT22;5966;52.402;5.322;2022-09-11T01:01:56;15.90;99.90
11818;DHT22;5966;52.402;5.322;2022-09-11T01:04:26;15.80;99.90
11818;DHT22;5966;52.402;5.322;2022-09-11T01:06:56;15.80;99.90
11818;DHT22;5966;52.402;5.322;2022-09-11T01:09:27;15.70;99.90
11818;DHT22;5966;52.402;5.322;2022-09-11T01:12:02;15.70;99.90
11818;DHT22;5966;52.402;5.322;2022-09-11T01:14:39;15.70;99.90
11818;DHT22;5966;52.402;5.322;2022-09-11T01:17:19;15.70;99.90
11818;DHT22;5966;52.402;5.322;2022-09-11T01:20:15;15.70;99.90
11818;DHT22;5966;52.402;5.322;2022-09-11T01:23:13;15.70;99.90
11818;DHT22;5966;52.402;5.322;2022-09-11T01:26:08;15.60;99.90
11818;DHT22;5966;52.402;5.322;2022-09-11T01:28:45;15.60;99.90
11818;DHT22;5966;52.402;5.322;2022-09-11T01:31:20;15.60;99.90
11818;DHT22;5966;52.402;5.322;2022-09-11T01:33:55;15.60;99.90
11818;DHT22;5966;52.402;5.322;2022-09-11T01:36:27;15.60;99.90
11818;DHT22;5966;52.402;5.322;2022-09-11T01:38:58;15.60;99.90
11818;DHT22;5966;52.402;5.322;2022-09-11T01:41:31;15.60;99.90
11818;DHT22;5966;52.402;5.322;2022-09-11T01:44:05;15.60;99.90
11818;DHT22;5966;52.402;5.322;2022-09-11T01:46:39;15.50;99.90
11818;DHT22;5966;52.402;5.322;2022-09-11T01:49:12;15.50;99.90
11818;DHT22;5966;52.402;5.322;2022-09-11T01:51:42;15.50;99.90
11818;DHT22;5966;52.402;5.322;2022-09-11T01:54:14;15.40;99.90
11818;DHT22;5966;52.402;5.322;2022-09-11T01:56:49;15.40;99.90
11818;DHT22;5966;52.402;5.322;2022-09-11T01:59:23;15.40;99.90
11818;DHT22;5966;52.402;5.322;2022-09-11T02:02:10;15.40;99.90
11818;DHT22;5966;52.402;5.322;2022-09-11T02:04:42;15.40;99.90
11818;DHT22;5966;52.402;5.322;2022-09-11T02:07:16;15.40;99.90
11818;DHT22;5966;52.402;5.322;2022-09-11T02:09:50;15.30;99.90
11818;DHT22;5966;52.402;5.322;2022-09-11T02:12:24;15.30;99.90
11818;DHT22;5966;52.402;5.322;2022-09-11T02:14:56;15.30;99.90
11818;DHT22;5966;52.402;5.322;2022-09-11T02:17:32;15.30;99.90
11818;DHT22;5966;52.402;5.322;2022-09-11T02:20:08;15.30;99.90
11818;DHT22;5966;52.402;5.322;2022-09-11T02:22:37;15.30;99.90
11818;DHT22;5966;52.402;5.322;2022-09-11T02:25:06;15.30;99.90
11818;DHT22;5966;52.402;5.322;2022-09-11T02:27:43;15.30;99.90
11818;DHT22;5966;52.402;5.322;2022-09-11T02:30:29;15.30;99.90
11818;DHT22;5966;52.402;5.322;2022-09-11T02:33:05;15.30;99.90
11818;DHT22;5966;52.402;5.322;2022-09-11T02:35:44;15.30;99.90
11818;DHT22;5966;52.402;5.322;2022-09-11T02:38:29;15.30;99.90
11818;DHT22;5966;52.402;5.322;2022-09-11T02:41:06;15.30;99.90
11818;DHT22;5966;52.402;5.322;2022-09-11T02:43:53;15.20;99.90
11818;DHT22;5966;52.402;5.322;2022-09-11T02:46:45;15.20;99.90
11818;DHT22;5966;52.402;5.322;2022-09-11T02:49:24;15.20;99.90
11818;DHT22;5966;52.402;5.322;2022-09-11T02:52:09;15.20;99.90
11818;DHT22;5966;52.402;5.322;2022-09-11T02:54:52;15.10;99.90
11818;DHT22;5966;52.402;5.322;2022-09-11T02:57:28;15.10;99.90
11818;DHT22;5966;52.402;5.322;2022-09-11T03:00:00;15.10;99.90
11818;DHT22;5966;52.402;5.322;2022-09-11T03:02:33;15.00;99.90
11818;DHT22;5966;52.402;5.322;2022-09-11T03:05:04;15.00;99.90
11818;DHT22;5966;52.402;5.322;2022-09-11T03:07:32;14.90;99.90
11818;DHT22;5966;52.402;5.322;2022-09-11T03:10:03;14.90;99.90
11818;DHT22;5966;52.402;5.322;2022-09-11T03:12:31;14.90;99.90
11818;DHT22;5966;52.402;5.322;2022-09-11T03:15:02;14.90;99.90
11818;DHT22;5966;52.402;5.322;2022-09-11T03:17:34;14.90;99.90
11818;DHT22;5966;52.402;5.322;2022-09-11T03:20:05;14.90;99.90
11818;DHT22;5966;52.402;5.322;2022-09-11T03:22:33;14.80;99.90
11818;DHT22;5966;52.402;5.322;2022-09-11T03:25:04;14.90;99.90
11818;DHT22;5966;52.402;5.322;2022-09-11T03:27:32;14.90;99.90
11818;DHT22;5966;52.402;5.322;2022-09-11T03:30:08;14.90;99.90
11818;DHT22;5966;52.402;5.322;2022-09-11T03:32:41;14.90;99.90
11818;DHT22;5966;52.402;5.322;2022-09-11T03:35:11;14.80;99.90
11818;DHT22;5966;52.402;5.322;2022-09-11T03:37:39;14.80;99.90
11818;DHT22;5966;52.402;5.322;2022-09-11T03:40:08;14.80;99.90
11818;DHT22;5966;52.402;5.322;2022-09-11T03:42:36;14.80;99.90
11818;DHT22;5966;52.402;5.322;2022-09-11T03:45:05;14.80;99.90
11818;DHT22;5966;52.402;5.322;2022-09-11T03:47:35;14.70;99.90
11818;DHT22;5966;52.402;5.322;2022-09-11T03:50:11;14.70;99.90
11818;DHT22;5966;52.402;5.322;2022-09-11T03:52:41;14.70;99.90
11818;DHT22;5966;52.402;5.322;2022-09-11T03:55:11;14.70;99.90
11818;DHT22;5966;52.402;5.322;2022-09-11T03:57:40;14.70;99.90
11818;DHT22;5966;52.402;5.322;2022-09-11T04:00:10;14.70;99.90
11818;DHT22;5966;52.402;5.322;2022-09-11T04:02:41;14.70;99.90
11818;DHT22;5966;52.402;5.322;2022-09-11T04:08:33;14.60;99.90
11818;DHT22;5966;52.402;5.322;2022-09-11T04:11:05;14.60;99.90
11818;DHT22;5966;52.402;5.322;2022-09-11T04:13:40;14.60;99.90
11818;DHT22;5966;52.402;5.322;2022-09-11T04:16:13;14.70;99.90
11818;DHT22;5966;52.402;5.322;2022-09-11T04:18:48;14.70;99.90
11818;DHT22;5966;52.402;5.322;2022-09-11T04:21:21;14.80;99.90
11818;DHT22;5966;52.402;5.322;2022-09-11T04:23:59;14.80;99.90
11818;DHT22;5966;52.402;5.322;2022-09-11T04:26:37;14.70;99.90
11818;DHT22;5966;52.402;5.322;2022-09-11T04:29:08;14.70;99.90
11818;DHT22;5966;52.402;5.322;2022-09-11T04:31:39;14.70;99.90
11818;DHT22;5966;52.402;5.322;2022-09-11T04:34:08;14.60;99.90
11818;DHT22;5966;52.402;5.322;2022-09-11T04:36:36;14.60;99.90
11818;DHT22;5966;52.402;5.322;2022-09-11T04:39:08;14.60;99.90
11818;DHT22;5966;52.402;5.322;2022-09-11T04:41:37;14.60;99.90
11818;DHT22;5966;52.402;5.322;2022-09-11T04:44:07;14.60;99.90
11818;DHT22;5966;52.402;5.322;2022-09-11T04:46:37;14.60;99.90
11818;DHT22;5966;52.402;5.322;2022-09-11T04:49:08;14.60;99.90
11818;DHT22;5966;52.402;5.322;2022-09-11T04:51:42;14.60;99.90
11818;DHT22;5966;52.402;5.322;2022-09-11T04:54:15;14.50;99.90
11818;DHT22;5966;52.402;5.322;2022-09-11T04:56:48;14.50;99.90
11818;DHT22;5966;52.402;5.322;2022-09-11T04:59:21;14.40;99.90
11818;DHT22;5966;52.402;5.322;2022-09-11T05:01:51;14.40;99.90
11818;DHT22;5966;52.402;5.322;2022-09-11T05:04:20;14.40;99.90
11818;DHT22;5966;52.402;5.322;2022-09-11T05:06:54;14.40;99.90
11818;DHT22;5966;52.402;5.322;2022-09-11T05:09:34;14.40;99.90
11818;DHT22;5966;52.402;5.322;2022-09-11T05:12:09;14.40;99.90
11818;DHT22;5966;52.402;5.322;2022-09-11T05:14:41;14.50;99.90
11818;DHT22;5966;52.402;5.322;2022-09-11T05:17:11;14.50;99.90
11818;DHT22;5966;52.402;5.322;2022-09-11T05:19:44;14.50;99.90
11818;DHT22;5966;52.402;5.322;2022-09-11T05:22:14;14.40;99.90
11818;DHT22;5966;52.402;5.322;2022-09-11T05:24:51;14.40;99.90
11818;DHT22;5966;52.402;5.322;2022-09-11T05:27:45;14.40;99.90
11818;DHT22;5966;52.402;5.322;2022-09-11T05:30:23;14.40;99.90
11818;DHT22;5966;52.402;5.322;2022-09-11T05:32:57;14.40;99.90
11818;DHT22;5966;52.402;5.322;2022-09-11T05:35:29;14.40;99.90
11818;DHT22;5966;52.402;5.322;2022-09-11T05:38:01;14.40;99.90
11818;DHT22;5966;52.402;5.322;2022-09-11T05:40:33;14.40;99.90
11818;DHT22;5966;52.402;5.322;2022-09-11T05:43:02;14.40;99.90
11818;DHT22;5966;52.402;5.322;2022-09-11T05:45:40;14.40;99.90
11818;DHT22;5966;52.402;5.322;2022-09-11T05:48:12;14.40;99.90
11818;DHT22;5966;52.402;5.322;2022-09-11T05:50:41;14.40;99.90
11818;DHT22;5966;52.402;5.322;2022-09-11T05:53:09;14.50;99.90
11818;DHT22;5966;52.402;5.322;2022-09-11T05:55:39;14.50;99.90
11818;DHT22;5966;52.402;5.322;2022-09-11T05:58:10;14.60;99.90
11818;DHT22;5966;52.402;5.322;2022-09-11T06:00:41;14.60;99.90
11818;DHT22;5966;52.402;5.322;2022-09-11T06:03:13;14.70;99.90
11818;DHT22;5966;52.402;5.322;2022-09-11T06:05:42;14.80;99.90
11818;DHT22;5966;52.402;5.322;2022-09-11T06:08:11;14.80;99.90
11818;DHT22;5966;52.402;5.322;2022-09-11T06:10:45;14.90;99.90
11818;DHT22;5966;52.402;5.322;2022-09-11T06:13:13;14.90;99.90
11818;DHT22;5966;52.402;5.322;2022-09-11T06:15:44;15.00;99.90
11818;DHT22;5966;52.402;5.322;2022-09-11T06:18:14;15.10;99.90
11818;DHT22;5966;52.402;5.322;2022-09-11T06:20:56;15.20;99.90
11818;DHT22;5966;52.402;5.322;2022-09-11T06:23:26;15.30;99.90
11818;DHT22;5966;52.402;5.322;2022-09-11T06:26:04;15.50;99.90
11818;DHT22;5966;52.402;5.322;2022-09-11T06:28:36;15.60;99.90
11818;DHT22;5966;52.402;5.322;2022-09-11T06:31:23;15.80;99.90
11818;DHT22;5966;52.402;5.322;2022-09-11T06:33:55;15.90;99.90
11818;DHT22;5966;52.402;5.322;2022-09-11T06:36:30;16.00;99.90
11818;DHT22;5966;52.402;5.322;2022-09-11T06:39:06;16.20;99.90
11818;DHT22;5966;52.402;5.322;2022-09-11T06:41:41;16.40;99.90
11818;DHT22;5966;52.402;5.322;2022-09-11T06:44:11;16.50;99.90
11818;DHT22;5966;52.402;5.322;2022-09-11T06:46:40;16.70;99.90
11818;DHT22;5966;52.402;5.322;2022-09-11T06:49:09;16.70;99.90
11818;DHT22;5966;52.402;5.322;2022-09-11T06:51:40;16.90;99.90
11818;DHT22;5966;52.402;5.322;2022-09-11T06:55:28;17.00;99.90
11818;DHT22;5966;52.402;5.322;2022-09-11T06:57:57;17.10;99.90
11818;DHT22;5966;52.402;5.322;2022-09-11T07:00:43;17.20;99.90
11818;DHT22;5966;52.402;5.322;2022-09-11T07:03:33;17.20;99.90
11818;DHT22;5966;52.402;5.322;2022-09-11T07:06:16;17.20;99.90
11818;DHT22;5966;52.402;5.322;2022-09-11T07:09:30;17.20;99.90
11818;DHT22;5966;52.402;5.322;2022-09-11T07:12:28;17.20;99.90
11818;DHT22;5966;52.402;5.322;2022-09-11T07:17:50;17.20;99.90
11818;DHT22;5966;52.402;5.322;2022-09-11T07:20:21;17.20;99.90
11818;DHT22;5966;52.402;5.322;2022-09-11T07:22:59;17.20;99.90
11818;DHT22;5966;52.402;5.322;2022-09-11T07:25:34;17.20;99.90
11818;DHT22;5966;52.402;5.322;2022-09-11T07:28:21;17.20;99.90
11818;DHT22;5966;52.402;5.322;2022-09-11T07:31:15;17.20;99.90
11818;DHT22;5966;52.402;5.322;2022-09-11T07:33:52;17.20;99.90
11818;DHT22;5966;52.402;5.322;2022-09-11T07:36:27;17.30;99.90
11818;DHT22;5966;52.402;5.322;2022-09-11T07:38:56;17.30;99.90
11818;DHT22;5966;52.402;5.322;2022-09-11T07:41:29;17.30;99.90
11818;DHT22;5966;52.402;5.322;2022-09-11T07:44:08;17.30;99.90
11818;DHT22;5966;52.402;5.322;2022-09-11T07:46:58;17.30;99.90
11818;DHT22;5966;52.402;5.322;2022-09-11T07:50:10;17.40;99.90
11818;DHT22;5966;52.402;5.322;2022-09-11T07:52:48;17.40;99.90
11818;DHT22;5966;52.402;5.322;2022-09-11T07:55:37;17.40;99.90
11818;DHT22;5966;52.402;5.322;2022-09-11T07:58:11;17.50;99.90
11818;DHT22;5966;52.402;5.322;2022-09-11T08:00:43;17.50;99.90
11818;DHT22;5966;52.402;5.322;2022-09-11T08:03:31;17.50;99.90
11818;DHT22;5966;52.402;5.322;2022-09-11T08:06:07;17.50;99.90
11818;DHT22;5966;52.402;5.322;2022-09-11T08:09:24;17.60;99.90
11818;DHT22;5966;52.402;5.322;2022-09-11T08:12:31;17.70;99.90
11818;DHT22;5966;52.402;5.322;2022-09-11T08:18:20;17.80;99.90
11818;DHT22;5966;52.402;5.322;2022-09-11T08:24:22;18.00;99.90
11818;DHT22;5966;52.402;5.322;2022-09-11T08:27:16;18.10;99.90
11818;DHT22;5966;52.402;5.322;2022-09-11T08:29:53;18.10;99.90
11818;DHT22;5966;52.402;5.322;2022-09-11T08:32:23;18.10;99.90
11818;DHT22;5966;52.402;5.322;2022-09-11T08:34:57;18.10;99.90
11818;DHT22;5966;52.402;5.322;2022-09-11T08:40:38;18.10;99.90
11818;DHT22;5966;52.402;5.322;2022-09-11T08:43:17;18.10;99.90
11818;DHT22;5966;52.402;5.322;2022-09-11T08:45:53;18.10;99.90
11818;DHT22;5966;52.402;5.322;2022-09-11T08:48:46;18.10;99.90
11818;DHT22;5966;52.402;5.322;2022-09-11T08:51:27;18.10;99.90
11818;DHT22;5966;52.402;5.322;2022-09-11T08:53:56;18.10;99.90
11818;DHT22;5966;52.402;5.322;2022-09-11T08:56:31;18.10;99.90
11818;DHT22;5966;52.402;5.322;2022-09-11T08:59:15;18.20;99.90
11818;DHT22;5966;52.402;5.322;2022-09-11T09:01:53;18.20;99.90
11818;DHT22;5966;52.402;5.322;2022-09-11T09:04:45;18.30;99.90
11818;DHT22;5966;52.402;5.322;2022-09-11T09:07:22;18.50;99.90
11818;DHT22;5966;52.402;5.322;2022-09-11T09:10:21;18.50;99.90
11818;DHT22;5966;52.402;5.322;2022-09-11T09:13:31;18.50;99.90
11818;DHT22;5966;52.402;5.322;2022-09-11T09:16:40;18.50;99.90
11818;DHT22;5966;52.402;5.322;2022-09-11T09:19:24;18.40;99.90
11818;DHT22;5966;52.402;5.322;2022-09-11T09:22:14;18.40;99.90
11818;DHT22;5966;52.402;5.322;2022-09-11T09:24:57;18.30;99.90
11818;DHT22;5966;52.402;5.322;2022-09-11T09:27:47;18.30;99.90
11818;DHT22;5966;52.402;5.322;2022-09-11T09:30:44;18.40;99.90
11818;DHT22;5966;52.402;5.322;2022-09-11T09:33:33;18.50;99.90
11818;DHT22;5966;52.402;5.322;2022-09-11T09:36:39;18.70;99.90
11818;DHT22;5966;52.402;5.322;2022-09-11T09:39:30;18.80;99.90
11818;DHT22;5966;52.402;5.322;2022-09-11T09:42:27;18.90;99.90
11818;DHT22;5966;52.402;5.322;2022-09-11T09:48:34;19.10;99.90
11818;DHT22;5966;52.402;5.322;2022-09-11T09:51:13;19.10;99.90
11818;DHT22;5966;52.402;5.322;2022-09-11T09:53:45;19.20;99.90
11818;DHT22;5966;52.402;5.322;2022-09-11T09:56:28;19.20;99.90
11818;DHT22;5966;52.402;5.322;2022-09-11T09:59:12;19.20;99.90
11818;DHT22;5966;52.402;5.322;2022-09-11T10:01:47;19.20;99.90
11818;DHT22;5966;52.402;5.322;2022-09-11T10:04:20;19.20;99.90
11818;DHT22;5966;52.402;5.322;2022-09-11T10:06:52;19.20;99.90
11818;DHT22;5966;52.402;5.322;2022-09-11T10:09:25;19.20;99.90
11818;DHT22;5966;52.402;5.322;2022-09-11T10:12:13;19.10;99.90
11818;DHT22;5966;52.402;5.322;2022-09-11T10:14:50;19.10;99.90
11818;DHT22;5966;52.402;5.322;2022-09-11T10:17:22;19.10;99.90
11818;DHT22;5966;52.402;5.322;2022-09-11T10:19:56;19.10;99.90
11818;DHT22;5966;52.402;5.322;2022-09-11T10:22:52;19.00;99.90
11818;DHT22;5966;52.402;5.322;2022-09-11T10:25:21;19.00;99.90
11818;DHT22;5966;52.402;5.322;2022-09-11T10:28:09;19.10;99.90
11818;DHT22;5966;52.402;5.322;2022-09-11T10:30:41;19.20;99.90
11818;DHT22;5966;52.402;5.322;2022-09-11T10:33:17;19.30;99.90
11818;DHT22;5966;52.402;5.322;2022-09-11T10:35:52;19.40;99.90
11818;DHT22;5966;52.402;5.322;2022-09-11T10:38:23;19.50;99.90
11818;DHT22;5966;52.402;5.322;2022-09-11T10:40:57;19.50;99.90
11818;DHT22;5966;52.402;5.322;2022-09-11T10:43:32;19.60;99.90
11818;DHT22;5966;52.402;5.322;2022-09-11T10:46:05;19.70;99.90
11818;DHT22;5966;52.402;5.322;2022-09-11T10:48:52;19.80;99.90
11818;DHT22;5966;52.402;5.322;2022-09-11T10:51:42;19.80;99.90
11818;DHT22;5966;52.402;5.322;2022-09-11T10:54:39;19.90;99.90
11818;DHT22;5966;52.402;5.322;2022-09-11T10:57:16;19.80;99.90
11818;DHT22;5966;52.402;5.322;2022-09-11T11:00:04;19.70;99.90
11818;DHT22;5966;52.402;5.322;2022-09-11T11:02:39;19.60;99.90
11818;DHT22;5966;52.402;5.322;2022-09-11T11:05:17;19.60;99.90
11818;DHT22;5966;52.402;5.322;2022-09-11T11:11:00;19.50;99.90
11818;DHT22;5966;52.402;5.322;2022-09-11T11:13:56;19.40;99.90
11818;DHT22;5966;52.402;5.322;2022-09-11T11:16:43;19.40;99.90
11818;DHT22;5966;52.402;5.322;2022-09-11T11:19:30;19.50;99.90
11818;DHT22;5966;52.402;5.322;2022-09-11T11:22:06;19.60;99.90
11818;DHT22;5966;52.402;5.322;2022-09-11T11:24:54;19.70;99.90
11818;DHT22;5966;52.402;5.322;2022-09-11T11:27:42;19.80;99.90
11818;DHT22;5966;52.402;5.322;2022-09-11T11:30:18;19.80;99.90
11818;DHT22;5966;52.402;5.322;2022-09-11T11:33:04;19.90;99.90
11818;DHT22;5966;52.402;5.322;2022-09-11T11:35:42;19.90;99.90
11818;DHT22;5966;52.402;5.322;2022-09-11T11:38:18;20.00;99.90
11818;DHT22;5966;52.402;5.322;2022-09-11T11:40:52;20.00;99.90
11818;DHT22;5966;52.402;5.322;2022-09-11T11:43:23;20.00;99.90
11818;DHT22;5966;52.402;5.322;2022-09-11T11:45:56;20.00;99.90
11818;DHT22;5966;52.402;5.322;2022-09-11T11:48:33;20.00;99.90
11818;DHT22;5966;52.402;5.322;2022-09-11T11:51:06;20.00;99.90
11818;DHT22;5966;52.402;5.322;2022-09-11T11:53:39;20.00;99.90
11818;DHT22;5966;52.402;5.322;2022-09-11T11:56:30;20.10;99.90
11818;DHT22;5966;52.402;5.322;2022-09-11T11:59:06;20.20;99.90
11818;DHT22;5966;52.402;5.322;2022-09-11T12:01:40;20.30;99.90
11818;DHT22;5966;52.402;5.322;2022-09-11T12:04:19;20.30;99.90
11818;DHT22;5966;52.402;5.322;2022-09-11T12:06:50;20.30;99.90
11818;DHT22;5966;52.402;5.322;2022-09-11T12:09:18;20.30;99.90
11818;DHT22;5966;52.402;5.322;2022-09-11T12:11:50;20.30;99.90
11818;DHT22;5966;52.402;5.322;2022-09-11T12:14:30;20.30;99.90
11818;DHT22;5966;52.402;5.322;2022-09-11T12:17:14;20.30;99.90
11818;DHT22;5966;52.402;5.322;2022-09-11T12:20:26;20.30;99.90
11818;DHT22;5966;52.402;5.322;2022-09-11T12:22:56;20.30;99.90
11818;DHT22;5966;52.402;5.322;2022-09-11T12:28:45;20.50;99.90
11818;DHT22;5966;52.402;5.322;2022-09-11T12:31:17;20.50;99.90
11818;DHT22;5966;52.402;5.322;2022-09-11T12:33:53;20.50;99.90
11818;DHT22;5966;52.402;5.322;2022-09-11T12:36:49;20.50;99.90
11818;DHT22;5966;52.402;5.322;2022-09-11T12:39:26;20.50;99.90
11818;DHT22;5966;52.402;5.322;2022-09-11T12:45:03;20.60;99.90
11818;DHT22;5966;52.402;5.322;2022-09-11T12:47:33;20.60;99.90
11818;DHT22;5966;52.402;5.322;2022-09-11T12:50:14;20.70;99.90
11818;DHT22;5966;52.402;5.322;2022-09-11T12:52:52;20.70;99.90
11818;DHT22;5966;52.402;5.322;2022-09-11T12:55:32;20.80;99.90
11818;DHT22;5966;52.402;5.322;2022-09-11T12:58:03;20.80;99.90
11818;DHT22;5966;52.402;5.322;2022-09-11T13:00:36;20.80;99.90
11818;DHT22;5966;52.402;5.322;2022-09-11T13:03:15;20.90;99.90
11818;DHT22;5966;52.402;5.322;2022-09-11T13:05:51;20.90;99.90
11818;DHT22;5966;52.402;5.322;2022-09-11T13:08:23;20.90;99.90
11818;DHT22;5966;52.402;5.322;2022-09-11T13:10:51;21.00;99.90
11818;DHT22;5966;52.402;5.322;2022-09-11T13:13:41;21.00;99.90
11818;DHT22;5966;52.402;5.322;2022-09-11T13:16:22;21.10;99.90
11818;DHT22;5966;52.402;5.322;2022-09-11T13:18:55;21.00;99.90
11818;DHT22;5966;52.402;5.322;2022-09-11T13:21:24;21.00;99.90
11818;DHT22;5966;52.402;5.322;2022-09-11T13:23:52;21.00;99.90
11818;DHT22;5966;52.402;5.322;2022-09-11T13:26:26;21.10;99.90
11818;DHT22;5966;52.402;5.322;2022-09-11T13:28:58;21.10;99.90
11818;DHT22;5966;52.402;5.322;2022-09-11T13:31:31;21.10;99.90
11818;DHT22;5966;52.402;5.322;2022-09-11T13:34:04;21.20;99.90
11818;DHT22;5966;52.402;5.322;2022-09-11T13:36:35;21.30;99.90
11818;DHT22;5966;52.402;5.322;2022-09-11T13:39:04;21.40;99.90
11818;DHT22;5966;52.402;5.322;2022-09-11T13:41:41;21.40;99.90
11818;DHT22;5966;52.402;5.322;2022-09-11T13:44:24;21.50;99.90
11818;DHT22;5966;52.402;5.322;2022-09-11T13:46:58;21.50;99.90
11818;DHT22;5966;52.402;5.322;2022-09-11T13:49:36;21.50;99.90
11818;DHT22;5966;52.402;5.322;2022-09-11T13:52:09;21.50;99.90
11818;DHT22;5966;52.402;5.322;2022-09-11T13:54:42;21.50;99.90
11818;DHT22;5966;52.402;5.322;2022-09-11T13:57:14;21.40;99.90
11818;DHT22;5966;52.402;5.322;2022-09-11T13:59:49;21.50;99.90
11818;DHT22;5966;52.402;5.322;2022-09-11T14:02:47;21.50;99.90
11818;DHT22;5966;52.402;5.322;2022-09-11T14:05:18;21.50;99.90
11818;DHT22;5966;52.402;5.322;2022-09-11T14:08:00;21.50;99.90
11818;DHT22;5966;52.402;5.322;2022-09-11T14:10:43;21.50;99.90
11818;DHT22;5966;52.402;5.322;2022-09-11T14:13:18;21.50;99.90
11818;DHT22;5966;52.402;5.322;2022-09-11T14:15:50;21.60;99.90
11818;DHT22;5966;52.402;5.322;2022-09-11T14:18:29;21.60;99.90
11818;DHT22;5966;52.402;5.322;2022-09-11T14:21:03;21.60;99.90
11818;DHT22;5966;52.402;5.322;2022-09-11T14:23:40;21.60;99.90
11818;DHT22;5966;52.402;5.322;2022-09-11T14:26:11;21.60;99.90
11818;DHT22;5966;52.402;5.322;2022-09-11T14:28:45;21.60;99.90
11818;DHT22;5966;52.402;5.322;2022-09-11T14:31:27;21.60;99.90
11818;DHT22;5966;52.402;5.322;2022-09-11T14:34:26;21.60;99.90
11818;DHT22;5966;52.402;5.322;2022-09-11T14:37:01;21.60;99.90
11818;DHT22;5966;52.402;5.322;2022-09-11T14:39:36;21.60;99.90
11818;DHT22;5966;52.402;5.322;2022-09-11T14:42:07;21.60;99.90
11818;DHT22;5966;52.402;5.322;2022-09-11T14:44:36;21.70;99.90
11818;DHT22;5966;52.402;5.322;2022-09-11T14:47:13;21.70;99.90
11818;DHT22;5966;52.402;5.322;2022-09-11T14:49:45;21.80;99.90
11818;DHT22;5966;52.402;5.322;2022-09-11T14:52:17;21.90;99.90
11818;DHT22;5966;52.402;5.322;2022-09-11T14:54:47;21.90;99.90
11818;DHT22;5966;52.402;5.322;2022-09-11T14:57:16;21.90;99.90
11818;DHT22;5966;52.402;5.322;2022-09-11T14:59:48;21.90;99.90
11818;DHT22;5966;52.402;5.322;2022-09-11T15:02:18;21.90;99.90
11818;DHT22;5966;52.402;5.322;2022-09-11T15:04:49;21.90;99.90
11818;DHT22;5966;52.402;5.322;2022-09-11T15:07:18;21.90;99.90
11818;DHT22;5966;52.402;5.322;2022-09-11T15:09:51;21.90;99.90
11818;DHT22;5966;52.402;5.322;2022-09-11T15:12:21;22.20;99.90
11818;DHT22;5966;52.402;5.322;2022-09-11T15:14:49;22.40;99.90
11818;DHT22;5966;52.402;5.322;2022-09-11T15:17:24;22.90;99.90
11818;DHT22;5966;52.402;5.322;2022-09-11T15:19:58;22.90;99.90
11818;DHT22;5966;52.402;5.322;2022-09-11T15:22:27;23.10;99.90
11818;DHT22;5966;52.402;5.322;2022-09-11T15:25:02;23.60;99.90
11818;DHT22;5966;52.402;5.322;2022-09-11T15:27:30;23.70;99.90
11818;DHT22;5966;52.402;5.322;2022-09-11T15:29:58;23.70;99.90
11818;DHT22;5966;52.402;5.322;2022-09-11T15:32:41;23.30;99.90
11818;DHT22;5966;52.402;5.322;2022-09-11T15:35:33;22.90;99.90
11818;DHT22;5966;52.402;5.322;2022-09-11T15:38:19;22.40;99.90
11818;DHT22;5966;52.402;5.322;2022-09-11T15:41:01;22.10;99.90
11818;DHT22;5966;52.402;5.322;2022-09-11T15:43:34;21.80;99.90
11818;DHT22;5966;52.402;5.322;2022-09-11T15:46:07;21.70;99.90
11818;DHT22;5966;52.402;5.322;2022-09-11T15:48:44;21.50;99.90
11818;DHT22;5966;52.402;5.322;2022-09-11T15:51:25;21.40;99.90
11818;DHT22;5966;52.402;5.322;2022-09-11T15:53:59;21.40;99.90
11818;DHT22;5966;52.402;5.322;2022-09-11T15:56:31;21.30;99.90
11818;DHT22;5966;52.402;5.322;2022-09-11T15:59:28;21.30;99.90
11818;DHT22;5966;52.402;5.322;2022-09-11T16:02:08;21.20;99.90
11818;DHT22;5966;52.402;5.322;2022-09-11T16:08:15;21.20;99.90
11818;DHT22;5966;52.402;5.322;2022-09-11T16:15:21;21.10;99.90
11818;DHT22;5966;52.402;5.322;2022-09-11T16:18:38;21.00;99.90
11818;DHT22;5966;52.402;5.322;2022-09-11T16:25:21;20.90;99.90
11818;DHT22;5966;52.402;5.322;2022-09-11T16:28:27;20.90;99.90
11818;DHT22;5966;52.402;5.322;2022-09-11T16:31:35;20.80;99.90
11818;DHT22;5966;52.402;5.322;2022-09-11T16:37:57;20.70;99.90
11818;DHT22;5966;52.402;5.322;2022-09-11T16:51:24;20.60;99.90
11818;DHT22;5966;52.402;5.322;2022-09-11T16:54:35;20.50;99.90
11818;DHT22;5966;52.402;5.322;2022-09-11T16:57:39;20.50;99.90
11818;DHT22;5966;52.402;5.322;2022-09-11T17:00:32;20.40;99.90
11818;DHT22;5966;52.402;5.322;2022-09-11T17:06:09;20.30;99.90
11818;DHT22;5966;52.402;5.322;2022-09-11T17:12:34;20.20;99.90
11818;DHT22;5966;52.402;5.322;2022-09-11T17:18:41;20.10;99.90
11818;DHT22;5966;52.402;5.322;2022-09-11T17:22:25;20.10;99.90
11818;DHT22;5966;52.402;5.322;2022-09-11T18:00:24;19.60;99.90
11818;DHT22;5966;52.402;5.322;2022-09-11T18:08:59;19.40;99.90
11818;DHT22;5966;52.402;5.322;2022-09-11T18:15:36;19.40;99.90
11818;DHT22;5966;52.402;5.322;2022-09-11T18:21:44;19.30;99.90
11818;DHT22;5966;52.402;5.322;2022-09-11T18:24:55;19.20;99.90
11818;DHT22;5966;52.402;5.322;2022-09-11T18:45:10;18.90;99.90
11818;DHT22;5966;52.402;5.322;2022-09-11T18:48:00;18.90;99.90
11818;DHT22;5966;52.402;5.322;2022-09-11T18:51:12;18.90;99.90
11818;DHT22;5966;52.402;5.322;2022-09-11T18:58:54;18.70;99.90
11818;DHT22;5966;52.402;5.322;2022-09-11T19:05:47;18.60;99.90
11818;DHT22;5966;52.402;5.322;2022-09-11T19:14:20;18.50;99.90
11818;DHT22;5966;52.402;5.322;2022-09-11T19:17:00;18.50;99.90
11818;DHT22;5966;52.402;5.322;2022-09-11T19:19:33;18.50;99.90